Time;durP1;ratioP1;P1;durP2;ratioP2;P2;SDS_P1;SDS_P2;PMS_P1;PMS_P2;Temp;Humidity;BMP_temperature;BMP_pressure;BME280_temperature;BME280_humidity;BME280_pressure;Samples;Min_cycle;Max_cycle;Signal;HPM_P1;HPM_P2
2022/10/16 00:00:32;;;;;;;44.75;33.05;;;19.90;92.30;;;;;;6368732;22;19998;-79
2022/10/16 00:02:58;;;;;;;41.50;29.80;;;19.80;92.30;;;;;;6369145;22;20005;-79
2022/10/16 00:05:23;;;;;;;44.38;28.85;;;19.90;92.30;;;;;;6341904;22;20018;-79
2022/10/16 00:07:49;;;;;;;45.33;31.63;;;19.90;92.30;;;;;;6368731;22;20059;-79
2022/10/16 00:10:15;;;;;;;47.40;32.97;;;19.90;92.40;;;;;;6341563;22;20436;-79
2022/10/16 00:12:41;;;;;;;45.58;32.03;;;20.00;92.30;;;;;;6368888;22;20131;-79
2022/10/16 00:15:07;;;;;;;42.15;29.25;;;19.90;92.20;;;;;;6369704;22;20020;-79
2022/10/16 00:17:33;;;;;;;42.10;29.80;;;19.90;92.40;;;;;;6369538;22;19994;-80
2022/10/16 00:19:58;;;;;;;41.47;30.08;;;20.00;92.50;;;;;;6369693;22;19999;-80
2022/10/16 00:22:24;;;;;;;43.65;31.55;;;20.00;92.50;;;;;;6369299;22;19994;-80
2022/10/16 00:24:50;;;;;;;42.55;31.10;;;20.00;92.40;;;;;;6369695;22;20009;-80
2022/10/16 00:27:16;;;;;;;45.55;32.28;;;20.00;92.40;;;;;;6369073;22;20029;-80
2022/10/16 00:29:42;;;;;;;40.10;29.40;;;20.00;92.40;;;;;;6341944;22;20404;-78
2022/10/16 00:32:08;;;;;;;43.33;32.40;;;20.00;92.40;;;;;;6369356;22;20002;-78
2022/10/16 00:34:34;;;;;;;44.55;31.85;;;20.10;92.40;;;;;;6370206;22;20410;-78
2022/10/16 00:36:59;;;;;;;42.72;30.02;;;20.10;92.40;;;;;;6369986;22;19994;-78
2022/10/16 00:39:25;;;;;;;44.13;29.80;;;20.10;92.40;;;;;;6370117;22;20084;-78
2022/10/16 00:41:51;;;;;;;40.75;30.88;;;20.00;92.30;;;;;;6369103;22;20059;-78
2022/10/16 00:44:41;;;;;;;40.15;29.27;;;20.10;92.50;;;;;;6369087;22;20396;-79
2022/10/16 00:47:10;;;;;;;46.25;31.23;;;20.10;92.60;;;;;;6341228;22;20002;-78
2022/10/16 00:49:36;;;;;;;42.65;30.50;;;20.00;92.70;;;;;;6370087;22;20009;-78
2022/10/16 00:52:02;;;;;;;42.65;29.85;;;20.00;92.70;;;;;;6369466;22;19998;-78
2022/10/16 00:54:30;;;;;;;43.03;29.38;;;20.00;92.70;;;;;;6370098;22;20024;-79
2022/10/16 00:57:00;;;;;;;40.83;30.73;;;20.00;92.60;;;;;;6368901;22;20007;-80
2022/10/16 00:59:35;;;;;;;42.33;29.10;;;20.00;92.60;;;;;;6369606;22;20080;-80
2022/10/16 01:02:04;;;;;;;43.67;30.20;;;20.00;92.60;;;;;;6369745;22;20051;-78
2022/10/16 01:04:37;;;;;;;44.25;29.38;;;20.00;92.50;;;;;;6370345;22;19998;-78
2022/10/16 01:07:29;;;;;;;40.85;27.90;;;20.00;92.70;;;;;;6369486;22;20159;-79
2022/10/16 01:09:59;;;;;;;44.88;31.58;;;20.00;92.50;;;;;;6370149;22;20051;-79
2022/10/16 01:12:49;;;;;;;43.17;29.13;;;20.00;92.90;;;;;;6369465;22;20342;-79
2022/10/16 01:15:33;;;;;;;;;;;20.00;92.70;;;;;;6369903;22;20074;-78
2022/10/16 01:18:01;;;;;;;44.88;31.08;;;20.00;92.60;;;;;;6368770;22;19930;-78
2022/10/16 01:20:37;;;;;;;48.50;33.13;;;20.00;92.70;;;;;;6369167;22;20035;-79
2022/10/16 01:23:11;;;;;;;47.85;35.20;;;20.00;92.60;;;;;;6369599;22;20403;-79
2022/10/16 01:26:11;;;;;;;54.78;36.55;;;20.00;92.50;;;;;;6369195;22;19999;-79
2022/10/16 01:29:11;;;;;;;54.07;35.80;;;20.00;92.50;;;;;;6368935;22;20054;-79
2022/10/16 01:31:39;;;;;;;;;;;20.00;92.50;;;;;;6369617;22;20009;-79
2022/10/16 01:34:13;;;;;;;63.83;40.97;;;20.00;92.40;;;;;;6369683;22;19909;-79
2022/10/16 01:36:52;;;;;;;69.57;43.38;;;20.00;92.40;;;;;;6368725;22;20593;-78
2022/10/16 01:39:22;;;;;;;83.55;47.58;;;20.00;92.40;;;;;;6369946;22;20002;-80
2022/10/16 01:41:55;;;;;;;74.07;47.08;;;19.90;91.70;;;;;;6368666;22;19994;-79
2022/10/16 01:44:33;;;;;;;76.80;48.05;;;19.90;92.00;;;;;;6368936;22;20006;-80
2022/10/16 01:46:59;;;;;;;68.68;42.20;;;19.90;92.00;;;;;;6369209;22;20017;-80
2022/10/16 01:49:31;;;;;;;79.25;47.17;;;19.90;91.90;;;;;;6371975;22;20492;-80
2022/10/16 01:52:00;;;;;;;75.75;48.22;;;19.90;92.00;;;;;;6371144;22;20002;-80
2022/10/16 01:54:29;;;;;;;82.55;47.40;;;19.90;91.80;;;;;;6371225;22;20079;-79
2022/10/16 01:56:56;;;;;;;82.85;50.42;;;19.90;91.80;;;;;;6369767;22;20014;-80
2022/10/16 01:59:25;;;;;;;77.07;45.95;;;19.90;91.80;;;;;;6343776;22;20002;-80
2022/10/16 02:01:56;;;;;;;77.93;48.42;;;19.90;91.80;;;;;;6343091;22;20089;-80
2022/10/16 02:04:27;;;;;;;75.40;45.20;;;19.90;91.80;;;;;;6371799;22;19995;-79
2022/10/16 02:06:54;;;;;;;74.95;48.88;;;19.90;92.00;;;;;;6370332;22;19995;-80
2022/10/16 02:09:20;;;;;;;79.05;47.10;;;19.90;91.80;;;;;;6371593;22;19998;-79
2022/10/16 02:11:46;;;;;;;74.07;45.80;;;19.90;91.80;;;;;;6370618;22;20070;-78
2022/10/16 02:14:12;;;;;;;76.35;47.55;;;19.90;91.80;;;;;;6371215;22;20079;-79
2022/10/16 02:16:41;;;;;;;83.53;52.95;;;19.90;91.90;;;;;;6369985;22;20001;-80
2022/10/16 02:19:07;;;;;;;70.53;47.45;;;19.90;91.70;;;;;;6371704;22;20001;-79
2022/10/16 02:21:55;;;;;;;82.47;49.90;;;19.90;92.00;;;;;;6370801;22;20022;-79
2022/10/16 02:24:45;;;;;;;75.40;46.28;;;19.80;92.00;;;;;;6370779;22;20018;-79
2022/10/16 02:27:30;;;;;;;74.90;45.80;;;19.80;92.10;;;;;;6371030;22;20311;-79
2022/10/16 02:30:07;;;;;;;75.10;46.63;;;19.80;92.20;;;;;;6342918;22;20362;-79
2022/10/16 02:32:35;;;;;;;72.82;45.50;;;19.80;92.20;;;;;;6370836;22;20006;-78
2022/10/16 02:35:02;;;;;;;84.97;48.47;;;19.80;92.40;;;;;;6370778;22;20005;-80
2022/10/16 02:37:28;;;;;;;81.10;47.40;;;19.80;92.40;;;;;;6371170;22;20071;-79
2022/10/16 02:39:57;;;;;;;74.70;46.85;;;19.80;92.40;;;;;;6369988;22;19999;-80
2022/10/16 02:42:28;;;;;;;69.22;42.15;;;19.80;92.50;;;;;;6370744;22;20063;-80
2022/10/16 02:44:54;;;;;;;74.90;47.40;;;19.90;92.60;;;;;;6370290;22;20030;-79
2022/10/16 02:47:20;;;;;;;78.35;48.30;;;19.80;92.70;;;;;;6370517;22;20021;-79
2022/10/16 02:49:45;;;;;;;73.60;44.92;;;19.80;92.70;;;;;;6369895;22;20424;-80
2022/10/16 02:52:11;;;;;;;72.30;43.90;;;19.80;92.90;;;;;;6370677;22;20057;-79
2022/10/16 02:54:37;;;;;;;66.60;42.92;;;19.80;92.90;;;;;;6369281;22;19998;-80
2022/10/16 02:57:02;;;;;;;72.50;44.63;;;19.80;93.00;;;;;;6370183;22;20436;-80
2022/10/16 02:59:28;;;;;;;72.55;44.55;;;19.80;92.90;;;;;;6369281;22;20002;-79
2022/10/16 03:01:54;;;;;;;71.53;45.70;;;19.80;93.00;;;;;;6370535;22;20409;-80
2022/10/16 03:04:19;;;;;;;68.55;43.08;;;19.90;93.10;;;;;;6369965;22;20328;-79
2022/10/16 03:06:45;;;;;;;70.47;44.00;;;19.90;93.00;;;;;;6370760;22;19998;-79
2022/10/16 03:09:10;;;;;;;76.95;45.72;;;19.90;93.10;;;;;;6370433;22;20025;-78
2022/10/16 03:11:36;;;;;;;65.70;41.70;;;19.90;93.00;;;;;;6370764;22;19994;-79
2022/10/16 03:14:02;;;;;;;74.45;42.85;;;19.90;92.90;;;;;;6370383;22;20014;-79
2022/10/16 03:16:28;;;;;;;76.57;44.47;;;19.90;92.90;;;;;;6370899;22;19999;-79
2022/10/16 03:18:53;;;;;;;76.45;46.72;;;19.90;92.90;;;;;;6369386;22;20020;-79
2022/10/16 03:21:19;;;;;;;75.15;45.28;;;19.90;92.80;;;;;;6370377;22;19995;-79
2022/10/16 03:23:44;;;;;;;74.32;44.63;;;19.90;92.90;;;;;;6341982;22;20006;-80
2022/10/16 03:26:10;;;;;;;73.60;42.03;;;19.90;92.80;;;;;;6370599;22;20056;-79
2022/10/16 03:28:36;;;;;;;69.70;43.78;;;19.90;93.10;;;;;;6342903;22;20074;-79
2022/10/16 03:31:02;;;;;;;75.80;45.55;;;19.90;92.90;;;;;;6369505;22;19998;-79
2022/10/16 03:33:27;;;;;;;70.80;45.58;;;19.90;92.50;;;;;;6370532;22;19994;-79
2022/10/16 03:35:54;;;;;;;77.03;46.47;;;19.90;92.40;;;;;;6369528;22;19994;-78
2022/10/16 03:38:21;;;;;;;71.70;43.78;;;19.90;92.30;;;;;;6370316;22;20005;-79
2022/10/16 03:40:47;;;;;;;76.57;47.05;;;19.90;92.50;;;;;;6369996;22;20057;-79
2022/10/16 03:43:12;;;;;;;70.95;43.47;;;19.90;92.40;;;;;;6370091;22;19999;-80
2022/10/16 03:45:38;;;;;;;69.40;44.88;;;19.90;92.60;;;;;;6369186;22;20033;-80
2022/10/16 03:48:04;;;;;;;72.05;42.42;;;19.80;92.60;;;;;;6342573;22;20003;-81
2022/10/16 03:50:29;;;;;;;73.93;47.20;;;19.80;92.70;;;;;;6370347;22;20439;-81
2022/10/16 03:52:55;;;;;;;75.95;47.67;;;19.80;92.60;;;;;;6370649;22;20017;-80
2022/10/16 03:55:21;;;;;;;73.03;46.47;;;19.80;92.50;;;;;;6369507;22;20014;-81
2022/10/16 03:57:47;;;;;;;74.22;45.70;;;19.80;92.40;;;;;;6370354;22;19999;-80
2022/10/16 04:00:13;;;;;;;79.47;49.00;;;19.80;92.30;;;;;;6370066;22;19994;-80
2022/10/16 04:02:39;;;;;;;72.72;44.35;;;19.70;92.40;;;;;;6369962;22;20025;-80
2022/10/16 04:05:06;;;;;;;69.95;45.30;;;19.70;92.20;;;;;;6369401;22;20047;-79
2022/10/16 04:07:31;;;;;;;82.88;49.80;;;19.70;92.30;;;;;;6370198;22;20006;-80
2022/10/16 04:09:58;;;;;;;80.72;46.38;;;19.60;92.20;;;;;;6369735;22;20024;-79
2022/10/16 04:12:25;;;;;;;68.30;42.30;;;19.60;92.20;;;;;;6369822;22;20002;-79
2022/10/16 04:14:50;;;;;;;72.95;46.90;;;19.60;92.20;;;;;;6369745;22;19994;-79
2022/10/16 04:17:16;;;;;;;76.40;46.55;;;19.60;92.20;;;;;;6369548;22;19994;-79
2022/10/16 04:19:42;;;;;;;84.53;51.92;;;19.60;92.30;;;;;;6341550;22;20086;-78
2022/10/16 04:22:07;;;;;;;76.00;47.78;;;19.50;92.10;;;;;;6369807;22;20063;-78
2022/10/16 04:24:33;;;;;;;78.78;48.83;;;19.50;92.30;;;;;;6368887;22;20069;-78
2022/10/16 04:26:59;;;;;;;78.93;49.08;;;19.40;92.40;;;;;;6369167;22;20004;-78
2022/10/16 04:29:25;;;;;;;67.50;43.95;;;19.40;92.40;;;;;;6369358;22;19994;-79
2022/10/16 04:31:51;;;;;;;74.65;46.10;;;19.40;92.60;;;;;;6369364;22;20001;-79
2022/10/16 04:34:16;;;;;;;80.25;49.55;;;19.40;92.30;;;;;;6341415;22;20022;-79
2022/10/16 04:36:42;;;;;;;69.32;43.92;;;19.40;92.40;;;;;;6370046;22;20061;-79
2022/10/16 04:39:08;;;;;;;77.68;49.53;;;19.40;92.40;;;;;;6369755;22;20040;-79
2022/10/16 04:41:33;;;;;;;77.95;48.22;;;19.30;92.40;;;;;;6342317;22;20026;-79
2022/10/16 04:43:59;;;;;;;71.75;47.60;;;19.30;92.60;;;;;;6369691;22;20006;-80
2022/10/16 04:46:25;;;;;;;74.13;46.30;;;19.30;92.70;;;;;;6370144;22;20081;-81
2022/10/16 04:48:50;;;;;;;78.32;49.63;;;19.30;92.60;;;;;;6369187;22;20006;-81
2022/10/16 04:51:16;;;;;;;85.60;51.10;;;19.30;92.50;;;;;;6369588;22;20003;-80
2022/10/16 04:53:42;;;;;;;82.43;49.63;;;19.20;92.60;;;;;;6341613;22;20009;-80
2022/10/16 04:56:08;;;;;;;94.03;54.58;;;19.20;92.70;;;;;;6369057;22;20014;-80
2022/10/16 04:58:33;;;;;;;84.10;52.45;;;19.00;93.00;;;;;;6370066;22;20020;-79
2022/10/16 05:00:59;;;;;;;89.68;52.10;;;18.90;93.20;;;;;;6341335;22;20002;-79
2022/10/16 05:03:25;;;;;;;81.47;51.15;;;18.80;93.50;;;;;;6369526;22;20075;-80
2022/10/16 05:05:50;;;;;;;79.25;50.47;;;18.70;93.70;;;;;;6368543;22;19998;-79
2022/10/16 05:08:16;;;;;;;84.68;52.72;;;18.60;93.80;;;;;;6341838;22;20006;-80
2022/10/16 05:10:44;;;;;;;83.63;51.60;;;18.60;93.60;;;;;;6368525;22;20455;-80
2022/10/16 05:13:10;;;;;;;79.25;45.50;;;18.60;93.70;;;;;;6368584;22;20005;-80
2022/10/16 05:15:36;;;;;;;75.82;48.95;;;18.60;93.80;;;;;;6368701;22;20018;-81
2022/10/16 05:18:02;;;;;;;89.05;51.13;;;18.60;93.60;;;;;;6369063;22;20048;-81
2022/10/16 05:20:27;;;;;;;76.30;50.33;;;18.60;93.50;;;;;;6368867;22;19995;-81
2022/10/16 05:22:53;;;;;;;72.20;44.78;;;18.60;93.60;;;;;;6369869;22;20333;-79
2022/10/16 05:25:19;;;;;;;66.93;45.00;;;18.60;93.50;;;;;;6370726;22;20005;-80
2022/10/16 05:27:48;;;;;;;79.80;52.15;;;18.60;93.40;;;;;;6370991;22;19998;-80
2022/10/16 05:30:14;;;;;;;85.13;53.00;;;18.60;93.20;;;;;;6370884;22;19998;-80
2022/10/16 05:32:40;;;;;;;76.28;50.53;;;18.50;93.20;;;;;;6371674;22;20002;-79
2022/10/16 05:35:06;;;;;;;77.72;50.35;;;18.40;93.40;;;;;;6371665;22;20329;-79
2022/10/16 05:37:32;;;;;;;71.45;48.65;;;18.40;93.50;;;;;;6343475;22;20328;-80
2022/10/16 05:39:58;;;;;;;72.28;48.00;;;18.50;93.60;;;;;;6370993;22;20081;-79
2022/10/16 05:42:23;;;;;;;72.65;47.28;;;18.40;93.30;;;;;;6371625;22;20415;-78
2022/10/16 05:44:49;;;;;;;70.55;45.17;;;18.40;93.60;;;;;;6342785;22;20357;-78
2022/10/16 05:47:15;;;;;;;72.75;48.92;;;18.40;93.50;;;;;;6371205;22;20006;-78
2022/10/16 05:49:41;;;;;;;72.10;47.53;;;18.50;93.50;;;;;;6370586;22;20003;-82
2022/10/16 05:52:06;;;;;;;73.78;48.13;;;18.50;93.00;;;;;;6371321;22;20010;-82
2022/10/16 05:54:32;;;;;;;74.03;48.63;;;18.50;92.80;;;;;;6370077;22;20639;-81
2022/10/16 05:56:57;;;;;;;71.57;48.60;;;18.40;92.90;;;;;;6371108;22;20006;-81
2022/10/16 05:59:23;;;;;;;72.78;47.35;;;18.40;92.90;;;;;;6369368;22;20363;-81
2022/10/16 06:01:49;;;;;;;71.50;47.20;;;18.30;92.90;;;;;;6370871;22;20019;-81
2022/10/16 06:04:15;;;;;;;70.72;46.88;;;18.30;92.90;;;;;;6343565;22;20093;-83
2022/10/16 06:06:40;;;;;;;70.50;45.60;;;18.20;93.00;;;;;;6372058;22;20088;-83
2022/10/16 06:09:06;;;;;;;61.50;41.15;;;18.20;92.80;;;;;;6341513;22;20009;-83
2022/10/16 06:11:33;;;;;;;71.15;46.55;;;18.20;92.90;;;;;;6371229;22;20002;-83
2022/10/16 06:14:02;;;;;;;62.17;43.33;;;18.20;92.80;;;;;;6370917;22;20081;-83
2022/10/16 06:16:28;;;;;;;70.63;46.25;;;18.30;92.80;;;;;;6370296;22;20366;-82
2022/10/16 06:18:55;;;;;;;57.60;40.30;;;18.30;92.70;;;;;;6370952;22;19998;-79
2022/10/16 06:21:27;;;;;;;65.00;44.33;;;18.40;92.70;;;;;;6371055;22;20002;-81
2022/10/16 06:23:54;;;;;;;73.35;43.90;;;18.40;92.40;;;;;;6370272;22;20006;-80
2022/10/16 06:26:23;;;;;;;69.88;45.72;;;18.30;92.40;;;;;;6370724;22;20002;-79
2022/10/16 06:28:49;;;;;;;67.63;44.55;;;18.40;92.50;;;;;;6341745;22;20006;-79
2022/10/16 06:31:17;;;;;;;58.70;40.28;;;18.50;92.40;;;;;;6341901;22;20010;-82
2022/10/16 06:33:43;;;;;;;64.30;43.72;;;18.50;92.50;;;;;;6369851;22;20034;-83
2022/10/16 06:36:14;;;;;;;72.28;45.13;;;18.50;92.00;;;;;;6370619;22;20067;-82
2022/10/16 06:38:41;;;;;;;61.80;44.83;;;18.50;91.90;;;;;;6370532;22;20504;-82
2022/10/16 06:41:09;;;;;;;59.75;42.33;;;18.30;92.00;;;;;;6370175;22;19998;-82
2022/10/16 06:43:35;;;;;;;55.40;37.28;;;18.30;92.20;;;;;;6368777;22;20012;-79
2022/10/16 06:46:02;;;;;;;54.00;38.10;;;18.40;92.10;;;;;;6340298;22;20428;-82
2022/10/16 06:48:29;;;;;;;64.05;42.65;;;18.40;92.40;;;;;;6368722;22;20026;-81
2022/10/16 06:51:03;;;;;;;62.85;42.13;;;18.40;91.90;;;;;;6370319;22;20008;-83
2022/10/16 06:53:32;;;;;;;59.20;40.15;;;18.40;92.10;;;;;;6342494;22;20029;-83
2022/10/16 06:55:58;;;;;;;61.10;43.05;;;18.40;92.00;;;;;;6370023;22;20340;-83
2022/10/16 06:58:24;;;;;;;58.13;41.10;;;18.40;92.00;;;;;;6370548;22;19994;-83
2022/10/16 07:00:56;;;;;;;60.63;38.40;;;18.50;92.10;;;;;;6370512;22;20127;-85
2022/10/16 07:03:22;;;;;;;62.15;40.90;;;18.50;91.90;;;;;;6369977;22;20013;-84
2022/10/16 07:05:48;;;;;;;56.35;38.30;;;18.50;91.90;;;;;;6342416;22;20024;-83
2022/10/16 07:08:13;;;;;;;61.42;38.58;;;18.60;91.90;;;;;;6369617;22;20048;-82
2022/10/16 07:10:39;;;;;;;56.83;37.58;;;18.60;91.70;;;;;;6370167;22;20081;-80
2022/10/16 07:13:07;;;;;;;64.13;43.67;;;18.60;91.70;;;;;;6359963;22;20013;-84
2022/10/16 07:15:33;;;;;;;55.30;40.45;;;18.60;91.60;;;;;;6369894;22;20018;-80
2022/10/16 07:17:59;;;;;;;60.58;42.10;;;18.70;91.60;;;;;;6338734;22;20135;-79
2022/10/16 07:20:25;;;;;;;55.03;36.38;;;18.60;91.50;;;;;;6368474;22;20026;-79
2022/10/16 07:22:52;;;;;;;50.75;37.70;;;18.70;91.60;;;;;;6369418;22;20002;-79
2022/10/16 07:25:18;;;;;;;53.65;39.25;;;18.80;91.60;;;;;;6367159;22;20333;-83
2022/10/16 07:27:43;;;;;;;50.72;35.95;;;18.80;91.40;;;;;;6368817;22;20006;-82
2022/10/16 07:30:09;;;;;;;49.35;36.55;;;18.90;91.50;;;;;;6367874;22;20010;-82
2022/10/16 07:32:35;;;;;;;56.58;39.03;;;19.00;91.50;;;;;;6368394;22;20010;-83
2022/10/16 07:35:01;;;;;;;55.92;36.90;;;19.10;91.40;;;;;;6367261;22;20026;-86
2022/10/16 07:37:27;;;;;;;50.60;35.17;;;19.20;91.10;;;;;;6367276;22;20420;-83
2022/10/16 07:39:52;;;;;;;50.28;34.60;;;19.10;91.10;;;;;;6367655;22;20007;-83
2022/10/16 07:42:19;;;;;;;52.75;34.75;;;19.20;91.20;;;;;;6341779;22;20367;-82
2022/10/16 07:44:45;;;;;;;59.45;39.20;;;19.30;91.20;;;;;;6368271;22;19997;-82
2022/10/16 07:47:11;;;;;;;51.38;37.83;;;19.40;91.10;;;;;;6341073;22;20077;-82
2022/10/16 07:49:37;;;;;;;51.05;36.42;;;19.40;90.90;;;;;;6341316;22;20416;-82
2022/10/16 07:52:03;;;;;;;53.40;35.50;;;19.50;90.90;;;;;;6369947;22;20421;-81
2022/10/16 07:54:28;;;;;;;56.55;40.00;;;19.60;90.80;;;;;;6341945;22;20428;-83
2022/10/16 07:56:54;;;;;;;54.17;37.63;;;19.70;90.70;;;;;;6369894;22;20010;-82
2022/10/16 07:59:20;;;;;;;47.80;34.25;;;19.70;90.70;;;;;;6370119;22;19998;-81
2022/10/16 08:01:46;;;;;;;56.42;38.58;;;19.80;90.60;;;;;;6369700;22;20006;-81
2022/10/16 08:04:12;;;;;;;52.35;33.88;;;19.90;90.60;;;;;;6369910;22;20047;-81
2022/10/16 08:06:39;;;;;;;50.80;35.47;;;20.00;90.30;;;;;;6370074;22;19999;-80
2022/10/16 08:09:06;;;;;;;59.45;41.15;;;20.10;90.40;;;;;;6369274;22;19998;-80
2022/10/16 08:11:32;;;;;;;58.28;40.95;;;20.10;90.00;;;;;;6369174;22;19998;-81
2022/10/16 08:13:57;;;;;;;53.97;39.03;;;20.10;89.50;;;;;;6341336;22;20010;-80
2022/10/16 08:16:23;;;;;;;63.63;41.40;;;20.00;89.90;;;;;;6370169;22;20427;-81
2022/10/16 08:18:51;;;;;;;53.17;37.03;;;20.00;90.20;;;;;;6368722;22;20067;-81
2022/10/16 08:21:23;;;;;;;49.80;35.38;;;20.00;90.40;;;;;;6366494;22;20005;-80
2022/10/16 08:23:49;;;;;;;46.35;33.00;;;20.10;90.30;;;;;;6338301;22;20323;-81
2022/10/16 08:26:15;;;;;;;47.85;32.13;;;20.30;90.40;;;;;;6365621;22;20009;-81
2022/10/16 08:28:41;;;;;;;39.90;30.42;;;20.40;90.20;;;;;;6366338;22;19998;-81
2022/10/16 08:31:11;;;;;;;48.30;35.20;;;20.60;90.20;;;;;;6369055;22;20009;-80
2022/10/16 08:33:38;;;;;;;45.55;33.08;;;20.80;90.10;;;;;;6340884;22;20422;-80
2022/10/16 08:36:05;;;;;;;47.67;34.88;;;20.90;89.30;;;;;;6367496;22;20397;-81
2022/10/16 08:38:31;;;;;;;54.38;36.70;;;21.00;88.90;;;;;;6367447;22;20002;-81
2022/10/16 08:41:08;;;;;;;52.35;35.83;;;21.10;88.00;;;;;;6367301;22;20052;-82
2022/10/16 08:44:15;;;;;;;50.85;34.63;;;21.10;87.80;;;;;;6368001;22;20009;-82
2022/10/16 08:46:45;;;;;;;41.17;29.85;;;21.20;87.90;;;;;;6341213;22;20045;-82
2022/10/16 08:49:16;;;;;;;43.47;31.48;;;21.20;88.20;;;;;;6367635;22;20002;-82
2022/10/16 08:51:41;;;;;;;;;;;21.40;87.90;;;;;;6340473;22;20009;-82
2022/10/16 08:54:42;;;;;;;49.03;34.28;;;21.50;87.40;;;;;;6368410;22;19903;-82
2022/10/16 08:57:18;;;;;;;44.75;31.48;;;21.60;85.90;;;;;;6318805;22;20021;-82
2022/10/16 08:59:44;;;;;;;45.72;32.03;;;21.70;86.20;;;;;;6371135;22;20022;-82
2022/10/16 09:02:37;;;;;;;41.58;31.08;;;21.90;86.40;;;;;;6370218;22;20051;-82
2022/10/16 09:05:18;;;;;;;49.20;36.38;;;22.00;86.10;;;;;;6369658;22;19998;-84
2022/10/16 09:08:10;;;;;;;47.85;33.15;;;22.10;85.50;;;;;;6371219;22;19999;-84
2022/10/16 09:10:41;;;;;;;42.90;29.88;;;22.20;84.60;;;;;;6368745;22;19998;-83
2022/10/16 09:13:29;;;;;;;48.00;32.95;;;22.40;84.50;;;;;;6341987;22;20010;-83
2022/10/16 09:16:13;;;;;;;44.50;31.15;;;22.50;84.20;;;;;;6370459;22;20005;-84
2022/10/16 09:19:07;;;;;;;41.78;31.20;;;22.60;83.60;;;;;;6370773;22;20412;-82
2022/10/16 09:21:39;;;;;;;48.92;32.67;;;22.60;83.40;;;;;;6369997;22;20029;-82
2022/10/16 09:24:16;;;;;;;48.92;34.55;;;22.60;83.80;;;;;;6370035;22;20006;-82
2022/10/16 09:26:43;;;;;;;46.22;33.47;;;22.50;83.30;;;;;;6370190;22;19998;-82
2022/10/16 09:29:12;;;;;;;50.47;35.60;;;22.50;83.30;;;;;;6370326;22;20006;-82
2022/10/16 09:31:38;;;;;;;43.78;29.65;;;22.50;83.50;;;;;;6370831;22;20006;-81
2022/10/16 09:34:08;;;;;;;42.35;29.67;;;22.60;84.00;;;;;;6341822;22;20010;-82
2022/10/16 09:36:44;;;;;;;46.53;33.72;;;22.70;83.80;;;;;;6371032;22;20412;-81
2022/10/16 09:39:11;;;;;;;39.22;28.85;;;22.90;82.80;;;;;;6370487;22;20434;-82
2022/10/16 09:41:43;;;;;;;39.22;28.63;;;23.00;83.10;;;;;;6370269;22;20007;-82
2022/10/16 09:44:29;;;;;;;38.72;27.73;;;23.20;83.40;;;;;;6342195;22;20012;-81
2022/10/16 09:47:02;;;;;;;37.85;26.98;;;23.30;83.00;;;;;;6371364;22;20305;-81
2022/10/16 09:49:28;;;;;;;40.17;27.83;;;23.40;82.50;;;;;;6371075;22;20003;-81
2022/10/16 09:52:12;;;;;;;40.35;27.60;;;23.50;82.60;;;;;;6372210;22;20033;-81
2022/10/16 09:54:52;;;;;;;40.85;30.33;;;23.60;82.30;;;;;;6372807;22;20009;-83
2022/10/16 09:57:18;;;;;;;;;;;23.60;81.30;;;;;;6339129;22;20011;-81
2022/10/16 09:59:49;;;;;;;38.20;27.77;;;23.70;81.50;;;;;;6339250;22;19902;-82
2022/10/16 10:02:16;;;;;;;;;;;23.80;81.90;;;;;;6339104;22;20003;-82
2022/10/16 10:04:56;;;;;;;39.25;26.80;;;23.80;81.10;;;;;;6338353;22;20281;-83
2022/10/16 10:07:28;;;;;;;40.10;28.30;;;24.00;81.30;;;;;;6337548;22;20007;-82
2022/10/16 10:09:56;;;;;;;46.92;32.97;;;24.00;80.80;;;;;;6337635;22;20014;-82
2022/10/16 10:12:32;;;;;;;38.67;25.35;;;23.80;80.10;;;;;;6339156;22;20418;-83
2022/10/16 10:15:04;;;;;;;38.72;28.63;;;23.80;80.90;;;;;;6338458;22;20006;-82
2022/10/16 10:17:30;;;;;;;37.60;26.15;;;23.80;82.00;;;;;;6337613;22;20057;-81
2022/10/16 10:20:01;;;;;;;34.88;25.42;;;24.00;82.50;;;;;;6337195;22;19994;-82
2022/10/16 10:22:38;;;;;;;38.83;28.83;;;24.20;82.20;;;;;;6333531;22;20326;-83
2022/10/16 10:25:13;;;;;;;44.38;30.67;;;24.30;80.60;;;;;;6335723;22;20010;-83
2022/10/16 10:28:03;;;;;;;32.90;24.42;;;24.10;80.40;;;;;;6334045;22;20099;-83
2022/10/16 10:30:57;;;;;;;30.83;24.13;;;24.10;81.20;;;;;;6333841;22;20452;-84
2022/10/16 10:33:31;;;;;;;34.55;25.58;;;24.10;81.60;;;;;;6337764;22;20007;-84
2022/10/16 10:36:16;;;;;;;39.63;26.90;;;24.10;81.80;;;;;;6346084;22;20040;-86
2022/10/16 10:38:56;;;;;;;32.20;24.85;;;24.10;80.90;;;;;;6343699;22;20002;-83
2022/10/16 10:41:36;;;;;;;33.20;25.20;;;24.10;81.30;;;;;;6347454;22;19999;-82
2022/10/16 10:44:56;;;;;;;28.83;22.38;;;24.10;81.90;;;;;;6341573;22;20002;-82
2022/10/16 10:47:29;;;;;;;29.73;21.63;;;24.30;82.10;;;;;;6210603;23;20005;-82
2022/10/16 10:50:07;;;;;;;31.45;21.42;;;24.60;82.50;;;;;;6315348;22;20010;-82
2022/10/16 10:53:04;;;;;;;32.00;21.08;;;24.80;82.10;;;;;;6334014;22;20018;-82
2022/10/16 10:55:39;;;;;;;25.23;20.80;;;25.10;80.90;;;;;;6240146;22;20050;-81
2022/10/16 10:58:24;;;;;;;24.83;20.80;;;25.40;80.10;;;;;;6370167;22;20104;-73
2022/10/16 11:00:50;;;;;;;27.05;21.90;;;25.60;80.10;;;;;;6368953;22;20475;-73
2022/10/16 11:03:37;;;;;;;27.52;21.15;;;25.70;79.90;;;;;;6368876;22;20005;-74
2022/10/16 11:06:14;;;;;;;27.88;20.48;;;26.00;78.60;;;;;;6369201;22;20034;-73
2022/10/16 11:08:57;;;;;;;27.13;21.60;;;26.10;77.00;;;;;;6369001;22;20068;-73
2022/10/16 11:11:39;;;;;;;23.20;19.40;;;26.20;76.10;;;;;;6368001;22;19998;-73
2022/10/16 11:14:05;;;;;;;25.42;20.40;;;26.40;76.40;;;;;;6369335;22;20002;-74
2022/10/16 11:16:50;;;;;;;29.60;22.27;;;26.50;75.80;;;;;;6340499;22;20002;-74
2022/10/16 11:19:47;;;;;;;25.25;21.48;;;26.60;74.50;;;;;;6368742;22;19999;-73
2022/10/16 11:22:19;;;;;;;24.60;19.98;;;26.70;74.50;;;;;;6367666;22;20066;-73
2022/10/16 11:24:54;;;;;;;26.13;21.85;;;26.80;73.60;;;;;;6369514;22;20001;-73
2022/10/16 11:27:37;;;;;;;25.52;21.42;;;27.10;72.60;;;;;;6366501;22;20002;-73
2022/10/16 11:30:24;;;;;;;33.60;26.17;;;27.40;71.90;;;;;;6367597;22;20013;-76
2022/10/16 11:33:11;;;;;;;29.20;21.00;;;27.60;70.20;;;;;;6339308;22;20040;-74
2022/10/16 11:35:44;;;;;;;29.63;24.70;;;27.90;70.20;;;;;;6367487;22;20073;-75
2022/10/16 11:38:27;;;;;;;23.95;19.70;;;28.20;69.80;;;;;;6335092;22;19998;-81
2022/10/16 11:41:00;;;;;;;27.70;21.63;;;28.30;68.40;;;;;;6366498;22;19999;-80
2022/10/16 11:43:41;;;;;;;28.23;21.27;;;28.40;68.10;;;;;;6340200;22;20463;-77
2022/10/16 11:46:19;;;;;;;29.98;22.23;;;28.40;69.00;;;;;;6341003;22;20006;-75
2022/10/16 11:49:06;;;;;;;24.10;20.42;;;28.50;67.60;;;;;;6368941;22;19998;-83
2022/10/16 11:51:39;;;;;;;27.17;22.17;;;28.50;67.40;;;;;;6368869;22;19998;-80
2022/10/16 11:54:44;;;;;;;25.00;20.02;;;28.80;67.10;;;;;;6367454;22;20085;-76
2022/10/16 11:57:19;;;;;;;23.80;19.35;;;29.00;66.60;;;;;;6360364;22;20009;-84
2022/10/16 12:00:13;;;;;;;26.17;20.08;;;29.30;65.30;;;;;;6339877;22;20009;-84
2022/10/16 12:03:01;;;;;;;24.17;20.80;;;29.40;65.10;;;;;;6340628;22;20420;-84
2022/10/16 12:05:54;;;;;;;29.98;21.33;;;29.50;65.00;;;;;;6341394;22;20017;-76
2022/10/16 12:08:20;;;;;;;26.20;21.70;;;29.40;65.00;;;;;;6340487;22;20007;-84
2022/10/16 12:10:48;;;;;;;27.40;21.38;;;29.40;65.00;;;;;;6368985;22;20008;-84
2022/10/16 12:13:43;;;;;;;24.80;21.65;;;29.60;65.90;;;;;;6340180;22;20006;-75
2022/10/16 12:16:12;;;;;;;25.73;21.33;;;29.60;65.00;;;;;;6341394;22;20047;-83
2022/10/16 12:18:43;;;;;;;29.35;23.60;;;29.60;65.40;;;;;;6368480;22;19995;-83
2022/10/16 12:21:13;;;;;;;32.20;24.10;;;29.50;65.20;;;;;;6368162;22;19999;-75
2022/10/16 12:23:50;;;;;;;27.35;22.42;;;29.10;66.50;;;;;;6368113;22;20030;-82
2022/10/16 12:26:31;;;;;;;24.50;20.90;;;28.60;68.10;;;;;;6368416;22;20002;-83
2022/10/16 12:29:21;;;;;;;22.88;19.35;;;28.30;68.20;;;;;;6362514;22;20029;-83
2022/10/16 12:31:50;;;;;;;23.00;19.65;;;28.20;68.50;;;;;;6367531;22;20006;-75
2022/10/16 12:34:51;;;;;;;22.45;20.17;;;28.20;67.80;;;;;;6366812;22;20026;-76
2022/10/16 12:37:29;;;;;;;22.33;19.45;;;27.80;68.40;;;;;;6240729;23;20138;-75
2022/10/16 12:39:56;;;;;;;24.98;21.60;;;27.50;69.70;;;;;;6352647;22;20025;-83
2022/10/16 12:42:29;;;;;;;24.77;21.00;;;27.10;70.80;;;;;;6367830;22;20070;-84
2022/10/16 12:44:56;;;;;;;25.27;19.92;;;26.80;72.00;;;;;;6368028;22;20002;-83
2022/10/16 12:47:31;;;;;;;23.73;20.70;;;26.60;73.10;;;;;;6340090;22;20002;-83